Taksiarxhs Efraim — SV4293 — position and weather

sailwx.info

Track history (hours):
 
Tides and Currents Weather Stations Pressure Air Temp Water Temp Dewpoint Dewpoint Depression Visibility Wind Speed Wind Dir Waves Ship Positions

Taksiarxhs Efraim

Last reported at 2017-Sep-19 12:05 UTC. Time now 2017-Nov-24 09:42 UTC.
Position N 40°02' E 023°43'.
Warning: this ship's position is months out of date.

Length 22 m; draft 1.8 m.

Type: Fishing. MMSI: 237348000.

Date/timePositionNaut miles runAvg speedWind from/ knotsBaromVisibWave heightAir tempDewpointWater temp
2017-Sep-19 12:05N 40°02' E 023°43'2 8.1
2017-Sep-19 11:48N 40°01' E 023°45'12 7.4
2017-Sep-19 10:11N 39°57' E 023°60'1 7.5
2017-Sep-19 10:00N 39°57' E 024°01'4 7.8
2017-Sep-19 09:30N 39°59' E 024°06'5 8.3
2017-Sep-19 08:56N 40°01' E 024°11'4 8.3
2017-Sep-19 08:30N 40°03' E 024°15'4 8.5
2017-Sep-19 08:00N 40°05' E 024°20'5 8.6
2017-Sep-19 07:22N 40°08' E 024°26'4 8.6
2017-Sep-19 06:54N 40°10' E 024°30'4 8.5
2017-Sep-19 06:23N 40°13' E 024°35'3 8.2
2017-Sep-19 06:00N 40°15' E 024°39'4 8.3
2017-Sep-19 05:30N 40°17' E 024°43'4 8.3
2017-Sep-19 04:59N 40°19' E 024°48'4 8.5
2017-Sep-19 04:30N 40°22' E 024°52'5 8.4
2017-Sep-19 03:54N 40°25' E 024°57'3 8.4
2017-Sep-19 03:29N 40°27' E 025°01'4 8.2
2017-Sep-19 02:59N 40°29' E 025°05'24 6.9
2017-Sep-18 23:32N 40°38' E 025°35'0 1.2
2017-Sep-18 23:29N 40°38' E 025°35'2 3.0
2017-Sep-18 22:52N 40°38' E 025°32'1 3.0
2017-Sep-18 22:30N 40°39' E 025°31'2 3.0
2017-Sep-18 22:00N 40°40' E 025°29'2 3.1
2017-Sep-18 21:30N 40°40' E 025°27'2 3.1
2017-Sep-18 21:00N 40°41' E 025°25'2 3.2
2017-Sep-18 20:30N 40°41' E 025°23'2 3.2
2017-Sep-18 20:00N 40°42' E 025°21'2 3.1
2017-Sep-18 19:30N 40°42' E 025°20'2 3.1
2017-Sep-18 19:00N 40°42' E 025°17'2 3.4
2017-Sep-18 18:30N 40°43' E 025°15'1 1.1
2017-Sep-18 18:00N 40°42' E 025°15'2 3.1
2017-Sep-18 17:30N 40°42' E 025°17'2 3.1
2017-Sep-18 17:00N 40°42' E 025°19'2 3.0
2017-Sep-18 16:30N 40°42' E 025°21'1 3.0
2017-Sep-18 16:00N 40°42' E 025°23'2 3.0
2017-Sep-18 15:30N 40°42' E 025°25'2 3.0
2017-Sep-18 15:00N 40°41' E 025°26'1 3.0
2017-Sep-18 14:30N 40°41' E 025°28'1 3.0
2017-Sep-18 14:00N 40°40' E 025°30'1 3.0
2017-Sep-18 13:30N 40°39' E 025°32'2 3.0
2017-Sep-18 13:00N 40°39' E 025°34'2 3.0
2017-Sep-18 12:30N 40°38' E 025°36'1 3.0
2017-Sep-18 12:00N 40°37' E 025°37'1 1.0
2017-Sep-18 11:29N 40°37' E 025°38'2 2.9
2017-Sep-18 10:53N 40°37' E 025°36'1 3.0
2017-Sep-18 10:30N 40°38' E 025°34'2 2.9
2017-Sep-18 09:51N 40°39' E 025°32'1 3.0
2017-Sep-18 09:30N 40°40' E 025°31'2 3.0
2017-Sep-18 08:59N 40°41' E 025°30'2 3.1
2017-Sep-18 08:29N 40°42' E 025°28'2 3.1
2017-Sep-18 08:00N 40°43' E 025°26'2 3.1
2017-Sep-18 07:28N 40°43' E 025°24'2 3.0
2017-Sep-18 06:56N 40°44' E 025°22'1 3.2
2017-Sep-18 06:30N 40°44' E 025°21'1 2.1
2017-Sep-18 06:00N 40°44' E 025°19'2 3.0
2017-Sep-18 05:30N 40°44' E 025°17'2 3.1
2017-Sep-18 05:00N 40°44' E 025°15'2 3.0
2017-Sep-18 04:30N 40°44' E 025°13'2 3.1
2017-Sep-18 04:00N 40°44' E 025°11'2 3.0
2017-Sep-18 03:30N 40°44' E 025°09'2 3.0
2017-Sep-18 03:00N 40°43' E 025°07'2 3.1
2017-Sep-18 02:30N 40°43' E 025°05'2 3.1
2017-Sep-18 02:00N 40°42' E 025°03'2 3.2
2017-Sep-18 01:30N 40°42' E 025°01'4 7.8
2017-Sep-18 01:00N 40°44' E 024°57'4 8.2
2017-Sep-18 00:30N 40°46' E 024°52'4 8.1
2017-Sep-18 00:00N 40°48' E 024°48'4 8.2
2017-Sep-17 23:30N 40°50' E 024°43'1 2.7
2017-Sep-17 23:00N 40°51' E 024°42'0 0.0
2017-Sep-17 22:30N 40°51' E 024°42'0 0.0
2017-Sep-17 22:00N 40°51' E 024°42'0 0.0
2017-Sep-17 21:30N 40°51' E 024°42'0 0.0
2017-Sep-17 21:00N 40°51' E 024°42'0 0.0
2017-Sep-17 20:30N 40°51' E 024°42'0 0.0
2017-Sep-17 20:00N 40°51' E 024°42'0 0.0
2017-Sep-17 19:30N 40°51' E 024°42'0 0.0
2017-Sep-17 19:00N 40°51' E 024°42'1 1.2
2017-Sep-17 18:30N 40°51' E 024°42'4 7.6
2017-Sep-17 18:00N 40°49' E 024°46'4 7.6
2017-Sep-17 17:30N 40°48' E 024°51'4 7.9
2017-Sep-17 17:00N 40°47' E 024°56'4 7.9
2017-Sep-17 16:30N 40°46' E 025°01'4 7.3
2017-Sep-17 16:00N 40°44' E 025°05'1 1.1
2017-Sep-17 15:30N 40°44' E 025°06'2 3.0
2017-Sep-17 15:00N 40°44' E 025°08'1 2.9
2017-Sep-17 14:30N 40°44' E 025°10'1 2.9
2017-Sep-17 14:00N 40°44' E 025°12'1 2.9
2017-Sep-17 13:30N 40°44' E 025°13'1 2.9
2017-Sep-17 13:00N 40°44' E 025°15'1 2.9
2017-Sep-17 12:30N 40°45' E 025°17'1 3.0
2017-Sep-17 12:00N 40°45' E 025°19'1 2.9
2017-Sep-17 11:30N 40°44' E 025°21'2 3.0
2017-Sep-17 11:00N 40°44' E 025°23'2 3.0
2017-Sep-17 10:30N 40°43' E 025°25'2 3.0
2017-Sep-17 09:58N 40°43' E 025°27'3 3.0
2017-Sep-17 09:06N 40°41' E 025°29'1 3.8
2017-Sep-17 08:55N 40°41' E 025°30'1 1.7
2017-Sep-17 08:30N 40°41' E 025°29'2 3.0
2017-Sep-17 08:00N 40°42' E 025°28'2 3.0
2017-Sep-17 07:24N 40°43' E 025°25'1 3.0
2017-Sep-17 07:00N 40°43' E 025°24'1 3.0
2017-Sep-17 06:30N 40°44' E 025°22'2 3.0
2017-Sep-17 05:59N 40°44' E 025°20'4 2.9
2017-Sep-17 04:37N 40°44' E 025°15'0 3.0
2017-Sep-17 04:28N 40°44' E 025°14'2 3.0
2017-Sep-17 03:58N 40°44' E 025°12'1 2.9
2017-Sep-17 03:30N 40°43' E 025°11'1 2.8
2017-Sep-17 03:00N 40°44' E 025°09'1 2.9
2017-Sep-17 02:30N 40°44' E 025°07'2 3.0
2017-Sep-17 02:00N 40°44' E 025°05'2 3.4
2017-Sep-17 01:30N 40°45' E 025°03'4 7.8
2017-Sep-17 01:00N 40°46' E 024°58'4 7.6
2017-Sep-17 00:30N 40°47' E 024°53'4 7.7
2017-Sep-17 00:00N 40°49' E 024°48'4 7.8
2017-Sep-16 23:30N 40°50' E 024°44'2 3.8
2017-Sep-16 23:00N 40°51' E 024°42'0 0.0
2017-Sep-16 22:30N 40°51' E 024°42'0 0.0
2017-Sep-16 22:00N 40°51' E 024°42'0 0.0
2017-Sep-16 21:30N 40°51' E 024°42'0 0.0
2017-Sep-16 21:00N 40°51' E 024°42'0 0.0
2017-Sep-16 20:30N 40°51' E 024°42'0 0.0
2017-Sep-16 20:00N 40°51' E 024°42'0 0.0
2017-Sep-16 19:30N 40°51' E 024°42'0 0.4
2017-Sep-16 19:00N 40°52' E 024°42'3 5.1
2017-Sep-16 18:30N 40°50' E 024°44'4 8.0
2017-Sep-16 18:00N 40°49' E 024°49'4 7.8
2017-Sep-16 17:30N 40°47' E 024°54'4 7.7
2017-Sep-16 17:00N 40°46' E 024°59'4 7.5
2017-Sep-16 16:30N 40°45' E 025°04'3 5.0
2017-Sep-16 16:00N 40°44' E 025°07'1 1.1
2017-Sep-16 15:30N 40°44' E 025°07'1 2.9
2017-Sep-16 15:00N 40°44' E 025°09'1 2.9
2017-Sep-16 14:30N 40°44' E 025°11'1 3.0
2017-Sep-16 14:00N 40°44' E 025°13'1 3.0
2017-Sep-16 13:30N 40°44' E 025°15'1 3.0
2017-Sep-16 13:00N 40°44' E 025°17'1 3.0
2017-Sep-16 12:30N 40°44' E 025°19'2 3.1
2017-Sep-16 12:00N 40°44' E 025°21'8 3.0
2017-Sep-16 09:10N 40°44' E 025°10'1 2.9
2017-Sep-16 08:53N 40°44' E 025°09'1 2.9
2017-Sep-16 08:29N 40°44' E 025°08'1 0.8
2017-Sep-16 07:34N 40°44' E 025°08'0 2.8
2017-Sep-16 07:30N 40°44' E 025°09'1 2.8
2017-Sep-16 06:58N 40°44' E 025°11'1 2.8
2017-Sep-16 06:28N 40°43' E 025°12'1 2.9
2017-Sep-16 05:58N 40°43' E 025°14'1 2.8
2017-Sep-16 05:30N 40°43' E 025°16'2 2.8
2017-Sep-16 04:50N 40°43' E 025°19'6 1.2
2017-Sep-15 23:29N 40°41' E 025°26'2 3.0
2017-Sep-15 22:44N 40°42' E 025°24'1 3.0
2017-Sep-15 22:30N 40°43' E 025°23'1 3.0
2017-Sep-15 22:00N 40°43' E 025°21'2 3.0
2017-Sep-15 21:30N 40°44' E 025°19'1 3.0
2017-Sep-15 21:00N 40°44' E 025°17'1 2.9
2017-Sep-15 20:30N 40°44' E 025°15'2 2.9
2017-Sep-15 19:59N 40°44' E 025°13'1 3.0
2017-Sep-15 19:30N 40°44' E 025°12'1 3.0
2017-Sep-15 19:00N 40°44' E 025°10'2 3.3
2017-Sep-15 18:23N 40°44' E 025°07'0 0.5
2017-Sep-15 18:00N 40°43' E 025°07'1 2.7
2017-Sep-15 17:30N 40°43' E 025°09'1 2.8
2017-Sep-15 17:00N 40°43' E 025°10'1 3.0
2017-Sep-15 16:30N 40°44' E 025°12'2 3.1
2017-Sep-15 16:00N 40°44' E 025°14'1 3.0
2017-Sep-15 15:30N 40°44' E 025°16'7 2.7
2017-Sep-15 12:54N 40°42' E 025°25'1 3.2
2017-Sep-15 12:30N 40°42' E 025°26'1 1.7
2017-Sep-15 11:45N 40°41' E 025°25'1 3.1
2017-Sep-15 11:23N 40°40' E 025°25'1 3.1
2017-Sep-15 11:00N 40°39' E 025°24'2 3.1
2017-Sep-15 10:30N 40°37' E 025°23'2 3.1
2017-Sep-15 10:00N 40°36' E 025°22'2 3.0
2017-Sep-15 09:30N 40°35' E 025°21'2 3.0
2017-Sep-15 08:43N 40°33' E 025°18'6 2.8
2017-Sep-15 06:38N 40°32' E 025°11'0 0.4
2017-Sep-15 06:27N 40°32' E 025°11'1 3.0
2017-Sep-15 05:59N 40°33' E 025°10'1 3.1
2017-Sep-15 05:30N 40°35' E 025°09'4 3.0
2017-Sep-15 04:13N 40°38' E 025°07'3 3.1
2017-Sep-15 03:10N 40°39' E 025°02'0 3.0
2017-Sep-15 03:00N 40°39' E 025°02'2 4.7
2017-Sep-15 02:30N 40°40' E 024°59'4 8.0
2017-Sep-15 02:00N 40°43' E 024°55'4 7.8
2017-Sep-15 01:30N 40°45' E 024°51'4 7.9
2017-Sep-15 01:00N 40°48' E 024°47'4 8.0
2017-Sep-15 00:30N 40°50' E 024°43'1 2.7
2017-Sep-15 00:00N 40°51' E 024°42'0 0.0
2017-Sep-14 23:30N 40°51' E 024°42'0 0.0
2017-Sep-14 23:00N 40°51' E 024°42'0 0.0
2017-Sep-14 22:30N 40°51' E 024°42'0 0.0
2017-Sep-14 22:00N 40°51' E 024°42'0 0.0
2017-Sep-14 21:30N 40°51' E 024°42'0 0.3
2017-Sep-14 21:00N 40°51' E 024°42'0 0.0
2017-Sep-14 20:30N 40°51' E 024°42'0 0.1
2017-Sep-14 20:00N 40°51' E 024°42'0 0.0
2017-Sep-14 19:30N 40°51' E 024°42'1 1.3
2017-Sep-14 19:00N 40°51' E 024°41'4 7.8
2017-Sep-14 18:30N 40°50' E 024°46'4 7.8
2017-Sep-14 18:00N 40°49' E 024°51'4 7.6
2017-Sep-14 17:30N 40°49' E 024°56'4 7.6
2017-Sep-14 17:00N 40°50' E 025°01'4 7.2
2017-Sep-14 16:30N 40°50' E 025°06'3 7.0
2017-Sep-14 16:00N 40°50' E 025°10'1 1.2
2017-Sep-14 15:30N 40°50' E 025°11'2 3.1
2017-Sep-14 15:00N 40°50' E 025°09'2 3.1
2017-Sep-14 14:30N 40°50' E 025°07'2 3.1
2017-Sep-14 14:00N 40°50' E 025°05'2 2.9
2017-Sep-14 13:16N 40°49' E 025°02'1 2.9
2017-Sep-14 13:00N 40°49' E 025°02'2 2.8
2017-Sep-14 12:26N 40°47' E 025°01'1 3.0
2017-Sep-14 12:00N 40°46' E 025°01'1 2.9
2017-Sep-14 11:30N 40°44' E 025°01'1 3.0
2017-Sep-14 11:00N 40°43' E 025°01'1 2.6
2017-Sep-14 10:30N 40°42' E 025°01'2 2.9
2017-Sep-14 09:54N 40°40' E 025°01'11 2.8
2017-Sep-14 05:55N 40°33' E 025°12'11 1.7
2017-Sep-13 23:33N 40°42' E 025°20'0 2.9
2017-Sep-13 23:30N 40°42' E 025°19'2 3.0
2017-Sep-13 22:56N 40°43' E 025°17'1 3.0
2017-Sep-13 22:30N 40°43' E 025°16'2 3.0
2017-Sep-13 22:00N 40°42' E 025°14'1 3.0
2017-Sep-13 21:30N 40°42' E 025°12'2 3.0
2017-Sep-13 21:00N 40°42' E 025°10'2 3.0
2017-Sep-13 20:30N 40°41' E 025°08'2 3.0
2017-Sep-13 20:00N 40°41' E 025°06'2 3.8
2017-Sep-13 19:30N 40°40' E 025°04'1 1.7
2017-Sep-13 18:50N 40°39' E 025°04'1 3.0
2017-Sep-13 18:30N 40°38' E 025°05'2 3.0
2017-Sep-13 18:00N 40°37' E 025°06'2 3.0
2017-Sep-13 17:26N 40°36' E 025°08'2 3.0
2017-Sep-13 16:53N 40°34' E 025°09'1 3.0
2017-Sep-13 16:30N 40°34' E 025°10'3 3.1
2017-Sep-13 15:38N 40°32' E 025°13'0 3.1
2017-Sep-13 15:30N 40°32' E 025°13'2 3.6
2017-Sep-13 15:00N 40°31' E 025°15'1 1.9
2017-Sep-13 14:30N 40°31' E 025°17'2 3.1
2017-Sep-13 14:00N 40°32' E 025°18'2 3.1
2017-Sep-13 13:30N 40°33' E 025°19'2 3.1
2017-Sep-13 13:00N 40°34' E 025°21'2 3.1
2017-Sep-13 12:30N 40°35' E 025°22'2 3.1
2017-Sep-13 12:00N 40°36' E 025°24'4 3.0
2017-Sep-13 10:34N 40°38' E 025°29'0 2.9
2017-Sep-13 10:27N 40°38' E 025°29'3 2.0
2017-Sep-13 08:46N 40°41' E 025°29'7 2.9
2017-Sep-13 06:30N 40°43' E 025°21'5 2.9
2017-Sep-13 04:42N 40°44' E 025°14'1 2.9
2017-Sep-13 04:28N 40°44' E 025°13'2 2.9
2017-Sep-13 03:42N 40°44' E 025°10'1 2.9
2017-Sep-13 03:28N 40°44' E 025°09'2 4.5
2017-Sep-13 03:00N 40°44' E 025°07'4 8.2
2017-Sep-13 02:30N 40°45' E 025°01'4 8.1
2017-Sep-13 01:59N 40°46' E 024°56'4 8.4
2017-Sep-13 01:30N 40°48' E 024°51'4 8.8
2017-Sep-13 01:00N 40°49' E 024°46'4 8.3
2017-Sep-13 00:30N 40°51' E 024°41'1 1.5
2017-Sep-13 00:00N 40°51' E 024°42'0 0.0
2017-Sep-12 23:30N 40°51' E 024°42'0 0.0
2017-Sep-12 23:00N 40°51' E 024°42'0 0.0
2017-Sep-12 22:30N 40°51' E 024°42'0 0.0
2017-Sep-12 22:00N 40°51' E 024°42'0 0.0
2017-Sep-12 21:30N 40°51' E 024°42'0 0.0
2017-Sep-12 21:00N 40°51' E 024°42'0 0.0
2017-Sep-12 20:30N 40°51' E 024°42'0 0.0
2017-Sep-12 20:00N 40°51' E 024°42'0 0.0
2017-Sep-12 19:30N 40°51' E 024°42'0 0.0
2017-Sep-12 19:00N 40°51' E 024°42'0 0.0
2017-Sep-12 18:30N 40°51' E 024°42'1 1.2
2017-Sep-12 18:00N 40°51' E 024°41'3 6.8
2017-Sep-12 17:30N 40°49' E 024°45'4 7.2
2017-Sep-12 17:00N 40°49' E 024°50'4 7.6
2017-Sep-12 16:30N 40°48' E 024°55'4 7.7
2017-Sep-12 16:00N 40°47' E 024°60'3 5.2
2017-Sep-12 15:30N 40°46' E 025°03'1 1.4
2017-Sep-12 15:00N 40°46' E 025°03'1 2.9
2017-Sep-12 14:30N 40°45' E 025°05'1 2.8
2017-Sep-12 14:00N 40°44' E 025°07'1 2.8
2017-Sep-12 13:30N 40°44' E 025°08'1 2.7
2017-Sep-12 13:00N 40°44' E 025°10'1 2.7
2017-Sep-12 12:30N 40°44' E 025°12'1 2.6
2017-Sep-12 12:00N 40°44' E 025°14'1 2.6
2017-Sep-12 11:26N 40°43' E 025°16'1 2.6
2017-Sep-12 11:00N 40°43' E 025°17'2 2.5
2017-Sep-12 10:12N 40°43' E 025°20'14 2.5
2017-Sep-12 04:34N 40°39' E 025°02'0 5.0
2017-Sep-12 04:30N 40°39' E 025°02'1 2.0
2017-Sep-12 04:00N 40°39' E 025°01'1 2.5
2017-Sep-12 03:25N 40°40' E 025°01'1 2.6
2017-Sep-12 02:54N 40°41' E 025°02'1 2.5
2017-Sep-12 02:29N 40°42' E 025°02'2 2.7
2017-Sep-12 01:55N 40°44' E 025°03'1 2.6
2017-Sep-12 01:28N 40°45' E 025°03'1 2.9
2017-Sep-12 01:00N 40°46' E 025°02'2 3.1
2017-Sep-12 00:30N 40°48' E 025°02'2 3.3
2017-Sep-12 00:00N 40°49' E 025°01'0 0.8
2017-Sep-11 23:30N 40°49' E 025°01'2 3.0
2017-Sep-11 23:00N 40°48' E 025°01'2 3.0
2017-Sep-11 22:30N 40°46' E 025°01'2 2.9
2017-Sep-11 21:58N 40°45' E 025°02'1 2.7
2017-Sep-11 21:30N 40°45' E 025°04'1 2.8
2017-Sep-11 21:00N 40°44' E 025°06'1 2.8
2017-Sep-11 20:30N 40°44' E 025°08'1 2.8
2017-Sep-11 20:00N 40°44' E 025°09'1 2.8
2017-Sep-11 19:30N 40°44' E 025°11'1 2.7
2017-Sep-11 19:00N 40°45' E 025°13'1 2.6
2017-Sep-11 18:26N 40°45' E 025°15'0 0.9
2017-Sep-11 17:59N 40°45' E 025°15'1 2.8
2017-Sep-11 17:29N 40°44' E 025°16'1 2.8
2017-Sep-11 17:00N 40°44' E 025°18'1 2.8
2017-Sep-11 16:30N 40°44' E 025°20'1 2.7
2017-Sep-11 16:00N 40°44' E 025°22'8 2.8
2017-Sep-11 13:15N 40°39' E 025°30'1 2.9
2017-Sep-11 13:00N 40°39' E 025°31'2 1.1
2017-Sep-11 11:13N 40°38' E 025°33'1 3.0
2017-Sep-11 10:47N 40°39' E 025°32'1 3.1
2017-Sep-11 10:19N 40°39' E 025°30'9 3.0
2017-Sep-11 07:19N 40°45' E 025°21'1 3.0
2017-Sep-11 07:00N 40°46' E 025°21'2 3.1
2017-Sep-11 06:30N 40°47' E 025°19'1 2.3
2017-Sep-11 06:00N 40°48' E 025°18'3 3.0
2017-Sep-11 04:59N 40°49' E 025°14'1 3.0
2017-Sep-11 04:30N 40°49' E 025°12'2 3.1
2017-Sep-11 03:59N 40°49' E 025°10'2 3.2
2017-Sep-11 03:23N 40°49' E 025°08'1 3.1
2017-Sep-11 03:00N 40°49' E 025°06'3 3.0
2017-Sep-11 01:59N 40°48' E 025°02'2 3.1
2017-Sep-11 01:29N 40°47' E 025°01'2 3.6
2017-Sep-11 01:00N 40°46' E 024°60'4 8.4
2017-Sep-11 00:30N 40°47' E 024°55'4 8.2
2017-Sep-11 00:00N 40°48' E 024°50'4 8.5
2017-Sep-10 23:30N 40°50' E 024°44'2 4.5
2017-Sep-10 23:00N 40°51' E 024°42'0 0.1
2017-Sep-10 22:30N 40°51' E 024°42'0 0.0
2017-Sep-10 22:00N 40°51' E 024°42'0 0.0
2017-Sep-10 21:30N 40°51' E 024°42'0 0.0
2017-Sep-10 21:00N 40°51' E 024°42'0 0.0
2017-Sep-10 20:30N 40°51' E 024°42'0 0.0
2017-Sep-10 20:00N 40°51' E 024°42'0 0.0
2017-Sep-10 19:30N 40°51' E 024°42'0 0.0
2017-Sep-10 19:00N 40°51' E 024°42'1 1.4
2017-Sep-10 18:30N 40°51' E 024°42'4 7.5
2017-Sep-10 18:00N 40°50' E 024°47'4 7.6
2017-Sep-10 17:30N 40°50' E 024°52'4 7.6
2017-Sep-10 17:00N 40°50' E 024°57'4 7.3
2017-Sep-10 16:30N 40°50' E 025°02'3 6.8
2017-Sep-10 16:00N 40°50' E 025°06'1 1.7
2017-Sep-10 15:30N 40°50' E 025°05'2 3.0
2017-Sep-10 15:00N 40°50' E 025°03'3 3.0
2017-Sep-10 14:00N 40°47' E 025°02'1 2.7
2017-Sep-10 13:30N 40°46' E 025°02'1 2.9
2017-Sep-10 13:00N 40°44' E 025°01'2 3.0
2017-Sep-10 12:30N 40°43' E 025°01'1 2.7
2017-Sep-10 12:00N 40°42' E 025°01'2 3.1
2017-Sep-10 11:30N 40°40' E 025°01'2 3.3
2017-Sep-10 10:59N 40°38' E 024°60'1 1.6
2017-Sep-10 10:30N 40°38' E 025°01'2 3.0
2017-Sep-10 10:00N 40°39' E 025°03'2 3.0
2017-Sep-10 09:28N 40°39' E 025°05'1 3.0
2017-Sep-10 09:00N 40°39' E 025°07'2 3.0
2017-Sep-10 08:30N 40°40' E 025°08'2 3.0
2017-Sep-10 07:59N 40°40' E 025°10'1 3.0
2017-Sep-10 07:30N 40°41' E 025°12'2 3.0
2017-Sep-10 07:00N 40°42' E 025°14'1 3.0
2017-Sep-10 06:30N 40°42' E 025°16'2 3.0
2017-Sep-10 06:00N 40°43' E 025°17'6 0.7
2017-Sep-09 20:38N 40°41' E 025°25'4 3.0
2017-Sep-09 19:10N 40°45' E 025°23'1 3.1
2017-Sep-09 18:57N 40°46' E 025°23'3 2.9
2017-Sep-09 17:56N 40°48' E 025°20'1 3.1
2017-Sep-09 17:30N 40°48' E 025°18'2 3.1
2017-Sep-09 16:54N 40°48' E 025°16'1 3.1
2017-Sep-09 16:30N 40°48' E 025°14'5 3.1
2017-Sep-09 14:55N 40°48' E 025°08'1 3.1
2017-Sep-09 14:28N 40°49' E 025°06'2 3.0
2017-Sep-09 13:56N 40°49' E 025°04'1 3.2
2017-Sep-09 13:30N 40°49' E 025°02'1 1.6
2017-Sep-09 13:00N 40°49' E 025°01'2 3.0
2017-Sep-09 12:29N 40°47' E 025°01'  
Track history (hours):
 
Tides and Currents Weather Stations Pressure Air Temp Water Temp Dewpoint Dewpoint Depression Visibility Wind Speed Wind Dir Waves Ship Positions

Taksiarxhs Efraim

Last reported at 2017-Sep-19 12:05 UTC. Time now 2017-Nov-24 09:42 UTC.
Position N 40°02' E 023°43'.
Warning: this ship's position is months out of date.

Length 22 m; draft 1.8 m.

Type: Fishing. MMSI: 237348000.

Date/timePositionNaut miles runAvg speedWind from/ knotsBaromVisibWave heightAir tempDewpointWater temp
2017-Sep-19 12:05N 40°02' E 023°43'2 8.1
2017-Sep-19 11:48N 40°01' E 023°45'12 7.4
2017-Sep-19 10:11N 39°57' E 023°60'1 7.5
2017-Sep-19 10:00N 39°57' E 024°01'4 7.8
2017-Sep-19 09:30N 39°59' E 024°06'5 8.3
2017-Sep-19 08:56N 40°01' E 024°11'4 8.3
2017-Sep-19 08:30N 40°03' E 024°15'4 8.5
2017-Sep-19 08:00N 40°05' E 024°20'5 8.6
2017-Sep-19 07:22N 40°08' E 024°26'4 8.6
2017-Sep-19 06:54N 40°10' E 024°30'4 8.5
2017-Sep-19 06:23N 40°13' E 024°35'3 8.2
2017-Sep-19 06:00N 40°15' E 024°39'4 8.3
2017-Sep-19 05:30N 40°17' E 024°43'4 8.3
2017-Sep-19 04:59N 40°19' E 024°48'4 8.5
2017-Sep-19 04:30N 40°22' E 024°52'5 8.4
2017-Sep-19 03:54N 40°25' E 024°57'3 8.4
2017-Sep-19 03:29N 40°27' E 025°01'4 8.2
2017-Sep-19 02:59N 40°29' E 025°05'24 6.9
2017-Sep-18 23:32N 40°38' E 025°35'0 1.2
2017-Sep-18 23:29N 40°38' E 025°35'2 3.0
2017-Sep-18 22:52N 40°38' E 025°32'1 3.0
2017-Sep-18 22:30N 40°39' E 025°31'2 3.0
2017-Sep-18 22:00N 40°40' E 025°29'2 3.1
2017-Sep-18 21:30N 40°40' E 025°27'2 3.1
2017-Sep-18 21:00N 40°41' E 025°25'2 3.2
2017-Sep-18 20:30N 40°41' E 025°23'2 3.2
2017-Sep-18 20:00N 40°42' E 025°21'2 3.1
2017-Sep-18 19:30N 40°42' E 025°20'2 3.1
2017-Sep-18 19:00N 40°42' E 025°17'2 3.4
2017-Sep-18 18:30N 40°43' E 025°15'1 1.1
2017-Sep-18 18:00N 40°42' E 025°15'2 3.1
2017-Sep-18 17:30N 40°42' E 025°17'2 3.1
2017-Sep-18 17:00N 40°42' E 025°19'2 3.0
2017-Sep-18 16:30N 40°42' E 025°21'1 3.0
2017-Sep-18 16:00N 40°42' E 025°23'2 3.0
2017-Sep-18 15:30N 40°42' E 025°25'2 3.0
2017-Sep-18 15:00N 40°41' E 025°26'1 3.0
2017-Sep-18 14:30N 40°41' E 025°28'1 3.0
2017-Sep-18 14:00N 40°40' E 025°30'1 3.0
2017-Sep-18 13:30N 40°39' E 025°32'2 3.0
2017-Sep-18 13:00N 40°39' E 025°34'2 3.0
2017-Sep-18 12:30N 40°38' E 025°36'1 3.0
2017-Sep-18 12:00N 40°37' E 025°37'1 1.0
2017-Sep-18 11:29N 40°37' E 025°38'2 2.9
2017-Sep-18 10:53N 40°37' E 025°36'1 3.0
2017-Sep-18 10:30N 40°38' E 025°34'2 2.9
2017-Sep-18 09:51N 40°39' E 025°32'1 3.0
2017-Sep-18 09:30N 40°40' E 025°31'2 3.0
2017-Sep-18 08:59N 40°41' E 025°30'2 3.1
2017-Sep-18 08:29N 40°42' E 025°28'2 3.1
2017-Sep-18 08:00N 40°43' E 025°26'2 3.1
2017-Sep-18 07:28N 40°43' E 025°24'2 3.0
2017-Sep-18 06:56N 40°44' E 025°22'1 3.2
2017-Sep-18 06:30N 40°44' E 025°21'1 2.1
2017-Sep-18 06:00N 40°44' E 025°19'2 3.0
2017-Sep-18 05:30N 40°44' E 025°17'2 3.1
2017-Sep-18 05:00N 40°44' E 025°15'2 3.0
2017-Sep-18 04:30N 40°44' E 025°13'2 3.1
2017-Sep-18 04:00N 40°44' E 025°11'2 3.0
2017-Sep-18 03:30N 40°44' E 025°09'2 3.0
2017-Sep-18 03:00N 40°43' E 025°07'2 3.1
2017-Sep-18 02:30N 40°43' E 025°05'2 3.1
2017-Sep-18 02:00N 40°42' E 025°03'2 3.2
2017-Sep-18 01:30N 40°42' E 025°01'4 7.8
2017-Sep-18 01:00N 40°44' E 024°57'4 8.2
2017-Sep-18 00:30N 40°46' E 024°52'4 8.1
2017-Sep-18 00:00N 40°48' E 024°48'4 8.2
2017-Sep-17 23:30N 40°50' E 024°43'1 2.7
2017-Sep-17 23:00N 40°51' E 024°42'0 0.0
2017-Sep-17 22:30N 40°51' E 024°42'0 0.0
2017-Sep-17 22:00N 40°51' E 024°42'0 0.0
2017-Sep-17 21:30N 40°51' E 024°42'0 0.0
2017-Sep-17 21:00N 40°51' E 024°42'0 0.0
2017-Sep-17 20:30N 40°51' E 024°42'0 0.0
2017-Sep-17 20:00N 40°51' E 024°42'0 0.0
2017-Sep-17 19:30N 40°51' E 024°42'0 0.0
2017-Sep-17 19:00N 40°51' E 024°42'1 1.2
2017-Sep-17 18:30N 40°51' E 024°42'4 7.6
2017-Sep-17 18:00N 40°49' E 024°46'4 7.6
2017-Sep-17 17:30N 40°48' E 024°51'4 7.9
2017-Sep-17 17:00N 40°47' E 024°56'4 7.9
2017-Sep-17 16:30N 40°46' E 025°01'4 7.3
2017-Sep-17 16:00N 40°44' E 025°05'1 1.1
2017-Sep-17 15:30N 40°44' E 025°06'2 3.0
2017-Sep-17 15:00N 40°44' E 025°08'1 2.9
2017-Sep-17 14:30N 40°44' E 025°10'1 2.9
2017-Sep-17 14:00N 40°44' E 025°12'1 2.9
2017-Sep-17 13:30N 40°44' E 025°13'1 2.9
2017-Sep-17 13:00N 40°44' E 025°15'1 2.9
2017-Sep-17 12:30N 40°45' E 025°17'1 3.0
2017-Sep-17 12:00N 40°45' E 025°19'1 2.9
2017-Sep-17 11:30N 40°44' E 025°21'2 3.0
2017-Sep-17 11:00N 40°44' E 025°23'2 3.0
2017-Sep-17 10:30N 40°43' E 025°25'2 3.0
2017-Sep-17 09:58N 40°43' E 025°27'3 3.0
2017-Sep-17 09:06N 40°41' E 025°29'1 3.8
2017-Sep-17 08:55N 40°41' E 025°30'1 1.7
2017-Sep-17 08:30N 40°41' E 025°29'2 3.0
2017-Sep-17 08:00N 40°42' E 025°28'2 3.0
2017-Sep-17 07:24N 40°43' E 025°25'1 3.0
2017-Sep-17 07:00N 40°43' E 025°24'1 3.0
2017-Sep-17 06:30N 40°44' E 025°22'2 3.0
2017-Sep-17 05:59N 40°44' E 025°20'4 2.9
2017-Sep-17 04:37N 40°44' E 025°15'0 3.0
2017-Sep-17 04:28N 40°44' E 025°14'2 3.0
2017-Sep-17 03:58N 40°44' E 025°12'1 2.9
2017-Sep-17 03:30N 40°43' E 025°11'1 2.8
2017-Sep-17 03:00N 40°44' E 025°09'1 2.9
2017-Sep-17 02:30N 40°44' E 025°07'2 3.0
2017-Sep-17 02:00N 40°44' E 025°05'2 3.4
2017-Sep-17 01:30N 40°45' E 025°03'4 7.8
2017-Sep-17 01:00N 40°46' E 024°58'4 7.6
2017-Sep-17 00:30N 40°47' E 024°53'4 7.7
2017-Sep-17 00:00N 40°49' E 024°48'4 7.8
2017-Sep-16 23:30N 40°50' E 024°44'2 3.8
2017-Sep-16 23:00N 40°51' E 024°42'0 0.0
2017-Sep-16 22:30N 40°51' E 024°42'0 0.0
2017-Sep-16 22:00N 40°51' E 024°42'0 0.0
2017-Sep-16 21:30N 40°51' E 024°42'0 0.0
2017-Sep-16 21:00N 40°51' E 024°42'0 0.0
2017-Sep-16 20:30N 40°51' E 024°42'0 0.0
2017-Sep-16 20:00N 40°51' E 024°42'0 0.0
2017-Sep-16 19:30N 40°51' E 024°42'0 0.4
2017-Sep-16 19:00N 40°52' E 024°42'3 5.1
2017-Sep-16 18:30N 40°50' E 024°44'4 8.0
2017-Sep-16 18:00N 40°49' E 024°49'4 7.8
2017-Sep-16 17:30N 40°47' E 024°54'4 7.7
2017-Sep-16 17:00N 40°46' E 024°59'4 7.5
2017-Sep-16 16:30N 40°45' E 025°04'3 5.0
2017-Sep-16 16:00N 40°44' E 025°07'1 1.1
2017-Sep-16 15:30N 40°44' E 025°07'1 2.9
2017-Sep-16 15:00N 40°44' E 025°09'1 2.9
2017-Sep-16 14:30N 40°44' E 025°11'1 3.0
2017-Sep-16 14:00N 40°44' E 025°13'1 3.0
2017-Sep-16 13:30N 40°44' E 025°15'1 3.0
2017-Sep-16 13:00N 40°44' E 025°17'1 3.0
2017-Sep-16 12:30N 40°44' E 025°19'2 3.1
2017-Sep-16 12:00N 40°44' E 025°21'8 3.0
2017-Sep-16 09:10N 40°44' E 025°10'1 2.9
2017-Sep-16 08:53N 40°44' E 025°09'1 2.9
2017-Sep-16 08:29N 40°44' E 025°08'1 0.8
2017-Sep-16 07:34N 40°44' E 025°08'0 2.8
2017-Sep-16 07:30N 40°44' E 025°09'1 2.8
2017-Sep-16 06:58N 40°44' E 025°11'1 2.8
2017-Sep-16 06:28N 40°43' E 025°12'1 2.9
2017-Sep-16 05:58N 40°43' E 025°14'1 2.8
2017-Sep-16 05:30N 40°43' E 025°16'2 2.8
2017-Sep-16 04:50N 40°43' E 025°19'6 1.2
2017-Sep-15 23:29N 40°41' E 025°26'2 3.0
2017-Sep-15 22:44N 40°42' E 025°24'1 3.0
2017-Sep-15 22:30N 40°43' E 025°23'1 3.0
2017-Sep-15 22:00N 40°43' E 025°21'2 3.0
2017-Sep-15 21:30N 40°44' E 025°19'1 3.0
2017-Sep-15 21:00N 40°44' E 025°17'1 2.9
2017-Sep-15 20:30N 40°44' E 025°15'2 2.9
2017-Sep-15 19:59N 40°44' E 025°13'1 3.0
2017-Sep-15 19:30N 40°44' E 025°12'1 3.0
2017-Sep-15 19:00N 40°44' E 025°10'2 3.3
2017-Sep-15 18:23N 40°44' E 025°07'0 0.5
2017-Sep-15 18:00N 40°43' E 025°07'1 2.7
2017-Sep-15 17:30N 40°43' E 025°09'1 2.8
2017-Sep-15 17:00N 40°43' E 025°10'1 3.0
2017-Sep-15 16:30N 40°44' E 025°12'2 3.1
2017-Sep-15 16:00N 40°44' E 025°14'1 3.0
2017-Sep-15 15:30N 40°44' E 025°16'7 2.7
2017-Sep-15 12:54N 40°42' E 025°25'1 3.2
2017-Sep-15 12:30N 40°42' E 025°26'1 1.7
2017-Sep-15 11:45N 40°41' E 025°25'1 3.1
2017-Sep-15 11:23N 40°40' E 025°25'1 3.1
2017-Sep-15 11:00N 40°39' E 025°24'2 3.1
2017-Sep-15 10:30N 40°37' E 025°23'2 3.1
2017-Sep-15 10:00N 40°36' E 025°22'2 3.0
2017-Sep-15 09:30N 40°35' E 025°21'2 3.0
2017-Sep-15 08:43N 40°33' E 025°18'6 2.8
2017-Sep-15 06:38N 40°32' E 025°11'0 0.4
2017-Sep-15 06:27N 40°32' E 025°11'1 3.0
2017-Sep-15 05:59N 40°33' E 025°10'1 3.1
2017-Sep-15 05:30N 40°35' E 025°09'4 3.0
2017-Sep-15 04:13N 40°38' E 025°07'3 3.1
2017-Sep-15 03:10N 40°39' E 025°02'0 3.0
2017-Sep-15 03:00N 40°39' E 025°02'2 4.7
2017-Sep-15 02:30N 40°40' E 024°59'4 8.0
2017-Sep-15 02:00N 40°43' E 024°55'4 7.8
2017-Sep-15 01:30N 40°45' E 024°51'4 7.9
2017-Sep-15 01:00N 40°48' E 024°47'4 8.0
2017-Sep-15 00:30N 40°50' E 024°43'1 2.7
2017-Sep-15 00:00N 40°51' E 024°42'0 0.0
2017-Sep-14 23:30N 40°51' E 024°42'0 0.0
2017-Sep-14 23:00N 40°51' E 024°42'0 0.0
2017-Sep-14 22:30N 40°51' E 024°42'0 0.0
2017-Sep-14 22:00N 40°51' E 024°42'0 0.0
2017-Sep-14 21:30N 40°51' E 024°42'0 0.3
2017-Sep-14 21:00N 40°51' E 024°42'0 0.0
2017-Sep-14 20:30N 40°51' E 024°42'0 0.1
2017-Sep-14 20:00N 40°51' E 024°42'0 0.0
2017-Sep-14 19:30N 40°51' E 024°42'1 1.3
2017-Sep-14 19:00N 40°51' E 024°41'4 7.8
2017-Sep-14 18:30N 40°50' E 024°46'4 7.8
2017-Sep-14 18:00N 40°49' E 024°51'4 7.6
2017-Sep-14 17:30N 40°49' E 024°56'4 7.6
2017-Sep-14 17:00N 40°50' E 025°01'4 7.2
2017-Sep-14 16:30N 40°50' E 025°06'3 7.0
2017-Sep-14 16:00N 40°50' E 025°10'1 1.2
2017-Sep-14 15:30N 40°50' E 025°11'2 3.1
2017-Sep-14 15:00N 40°50' E 025°09'2 3.1
2017-Sep-14 14:30N 40°50' E 025°07'2 3.1
2017-Sep-14 14:00N 40°50' E 025°05'2 2.9
2017-Sep-14 13:16N 40°49' E 025°02'1 2.9
2017-Sep-14 13:00N 40°49' E 025°02'2 2.8
2017-Sep-14 12:26N 40°47' E 025°01'1 3.0
2017-Sep-14 12:00N 40°46' E 025°01'1 2.9
2017-Sep-14 11:30N 40°44' E 025°01'1 3.0
2017-Sep-14 11:00N 40°43' E 025°01'1 2.6
2017-Sep-14 10:30N 40°42' E 025°01'2 2.9
2017-Sep-14 09:54N 40°40' E 025°01'11 2.8
2017-Sep-14 05:55N 40°33' E 025°12'11 1.7
2017-Sep-13 23:33N 40°42' E 025°20'0 2.9
2017-Sep-13 23:30N 40°42' E 025°19'2 3.0
2017-Sep-13 22:56N 40°43' E 025°17'1 3.0
2017-Sep-13 22:30N 40°43' E 025°16'2 3.0
2017-Sep-13 22:00N 40°42' E 025°14'1 3.0
2017-Sep-13 21:30N 40°42' E 025°12'2 3.0
2017-Sep-13 21:00N 40°42' E 025°10'2 3.0
2017-Sep-13 20:30N 40°41' E 025°08'2 3.0
2017-Sep-13 20:00N 40°41' E 025°06'2 3.8
2017-Sep-13 19:30N 40°40' E 025°04'1 1.7
2017-Sep-13 18:50N 40°39' E 025°04'1 3.0
2017-Sep-13 18:30N 40°38' E 025°05'2 3.0
2017-Sep-13 18:00N 40°37' E 025°06'2 3.0
2017-Sep-13 17:26N 40°36' E 025°08'2 3.0
2017-Sep-13 16:53N 40°34' E 025°09'1 3.0
2017-Sep-13 16:30N 40°34' E 025°10'3 3.1
2017-Sep-13 15:38N 40°32' E 025°13'0 3.1
2017-Sep-13 15:30N 40°32' E 025°13'2 3.6
2017-Sep-13 15:00N 40°31' E 025°15'1 1.9
2017-Sep-13 14:30N 40°31' E 025°17'2 3.1
2017-Sep-13 14:00N 40°32' E 025°18'2 3.1
2017-Sep-13 13:30N 40°33' E 025°19'2 3.1
2017-Sep-13 13:00N 40°34' E 025°21'2 3.1
2017-Sep-13 12:30N 40°35' E 025°22'2 3.1
2017-Sep-13 12:00N 40°36' E 025°24'4 3.0
2017-Sep-13 10:34N 40°38' E 025°29'0 2.9
2017-Sep-13 10:27N 40°38' E 025°29'3 2.0
2017-Sep-13 08:46N 40°41' E 025°29'7 2.9
2017-Sep-13 06:30N 40°43' E 025°21'5 2.9
2017-Sep-13 04:42N 40°44' E 025°14'1 2.9
2017-Sep-13 04:28N 40°44' E 025°13'2 2.9
2017-Sep-13 03:42N 40°44' E 025°10'1 2.9
2017-Sep-13 03:28N 40°44' E 025°09'2 4.5
2017-Sep-13 03:00N 40°44' E 025°07'4 8.2
2017-Sep-13 02:30N 40°45' E 025°01'4 8.1
2017-Sep-13 01:59N 40°46' E 024°56'4 8.4
2017-Sep-13 01:30N 40°48' E 024°51'4 8.8
2017-Sep-13 01:00N 40°49' E 024°46'4 8.3
2017-Sep-13 00:30N 40°51' E 024°41'1 1.5
2017-Sep-13 00:00N 40°51' E 024°42'0 0.0
2017-Sep-12 23:30N 40°51' E 024°42'0 0.0
2017-Sep-12 23:00N 40°51' E 024°42'0 0.0
2017-Sep-12 22:30N 40°51' E 024°42'0 0.0
2017-Sep-12 22:00N 40°51' E 024°42'0 0.0
2017-Sep-12 21:30N 40°51' E 024°42'0 0.0
2017-Sep-12 21:00N 40°51' E 024°42'0 0.0
2017-Sep-12 20:30N 40°51' E 024°42'0 0.0
2017-Sep-12 20:00N 40°51' E 024°42'0 0.0
2017-Sep-12 19:30N 40°51' E 024°42'0 0.0
2017-Sep-12 19:00N 40°51' E 024°42'0 0.0
2017-Sep-12 18:30N 40°51' E 024°42'1 1.2
2017-Sep-12 18:00N 40°51' E 024°41'3 6.8
2017-Sep-12 17:30N 40°49' E 024°45'4 7.2
2017-Sep-12 17:00N 40°49' E 024°50'4 7.6
2017-Sep-12 16:30N 40°48' E 024°55'4 7.7
2017-Sep-12 16:00N 40°47' E 024°60'3 5.2
2017-Sep-12 15:30N 40°46' E 025°03'1 1.4
2017-Sep-12 15:00N 40°46' E 025°03'1 2.9
2017-Sep-12 14:30N 40°45' E 025°05'1 2.8
2017-Sep-12 14:00N 40°44' E 025°07'1 2.8
2017-Sep-12 13:30N 40°44' E 025°08'1 2.7
2017-Sep-12 13:00N 40°44' E 025°10'1 2.7
2017-Sep-12 12:30N 40°44' E 025°12'1 2.6
2017-Sep-12 12:00N 40°44' E 025°14'1 2.6
2017-Sep-12 11:26N 40°43' E 025°16'1 2.6
2017-Sep-12 11:00N 40°43' E 025°17'2 2.5
2017-Sep-12 10:12N 40°43' E 025°20'14 2.5
2017-Sep-12 04:34N 40°39' E 025°02'0 5.0
2017-Sep-12 04:30N 40°39' E 025°02'1 2.0
2017-Sep-12 04:00N 40°39' E 025°01'1 2.5
2017-Sep-12 03:25N 40°40' E 025°01'1 2.6
2017-Sep-12 02:54N 40°41' E 025°02'1 2.5
2017-Sep-12 02:29N 40°42' E 025°02'2 2.7
2017-Sep-12 01:55N 40°44' E 025°03'1 2.6
2017-Sep-12 01:28N 40°45' E 025°03'1 2.9
2017-Sep-12 01:00N 40°46' E 025°02'2 3.1
2017-Sep-12 00:30N 40°48' E 025°02'2 3.3
2017-Sep-12 00:00N 40°49' E 025°01'0 0.8
2017-Sep-11 23:30N 40°49' E 025°01'2 3.0
2017-Sep-11 23:00N 40°48' E 025°01'2 3.0
2017-Sep-11 22:30N 40°46' E 025°01'2 2.9
2017-Sep-11 21:58N 40°45' E 025°02'1 2.7
2017-Sep-11 21:30N 40°45' E 025°04'1 2.8
2017-Sep-11 21:00N 40°44' E 025°06'1 2.8
2017-Sep-11 20:30N 40°44' E 025°08'1 2.8
2017-Sep-11 20:00N 40°44' E 025°09'1 2.8
2017-Sep-11 19:30N 40°44' E 025°11'1 2.7
2017-Sep-11 19:00N 40°45' E 025°13'1 2.6
2017-Sep-11 18:26N 40°45' E 025°15'0 0.9
2017-Sep-11 17:59N 40°45' E 025°15'1 2.8
2017-Sep-11 17:29N 40°44' E 025°16'1 2.8
2017-Sep-11 17:00N 40°44' E 025°18'1 2.8
2017-Sep-11 16:30N 40°44' E 025°20'1 2.7
2017-Sep-11 16:00N 40°44' E 025°22'8 2.8
2017-Sep-11 13:15N 40°39' E 025°30'1 2.9
2017-Sep-11 13:00N 40°39' E 025°31'2 1.1
2017-Sep-11 11:13N 40°38' E 025°33'1 3.0
2017-Sep-11 10:47N 40°39' E 025°32'1 3.1
2017-Sep-11 10:19N 40°39' E 025°30'9 3.0
2017-Sep-11 07:19N 40°45' E 025°21'1 3.0
2017-Sep-11 07:00N 40°46' E 025°21'2 3.1
2017-Sep-11 06:30N 40°47' E 025°19'1 2.3
2017-Sep-11 06:00N 40°48' E 025°18'3 3.0
2017-Sep-11 04:59N 40°49' E 025°14'1 3.0
2017-Sep-11 04:30N 40°49' E 025°12'2 3.1
2017-Sep-11 03:59N 40°49' E 025°10'2 3.2
2017-Sep-11 03:23N 40°49' E 025°08'1 3.1
2017-Sep-11 03:00N 40°49' E 025°06'3 3.0
2017-Sep-11 01:59N 40°48' E 025°02'2 3.1
2017-Sep-11 01:29N 40°47' E 025°01'2 3.6
2017-Sep-11 01:00N 40°46' E 024°60'4 8.4
2017-Sep-11 00:30N 40°47' E 024°55'4 8.2
2017-Sep-11 00:00N 40°48' E 024°50'4 8.5
2017-Sep-10 23:30N 40°50' E 024°44'2 4.5
2017-Sep-10 23:00N 40°51' E 024°42'0 0.1
2017-Sep-10 22:30N 40°51' E 024°42'0 0.0
2017-Sep-10 22:00N 40°51' E 024°42'0 0.0
2017-Sep-10 21:30N 40°51' E 024°42'0 0.0
2017-Sep-10 21:00N 40°51' E 024°42'0 0.0
2017-Sep-10 20:30N 40°51' E 024°42'0 0.0
2017-Sep-10 20:00N 40°51' E 024°42'0 0.0
2017-Sep-10 19:30N 40°51' E 024°42'0 0.0
2017-Sep-10 19:00N 40°51' E 024°42'1 1.4
2017-Sep-10 18:30N 40°51' E 024°42'4 7.5
2017-Sep-10 18:00N 40°50' E 024°47'4 7.6
2017-Sep-10 17:30N 40°50' E 024°52'4 7.6
2017-Sep-10 17:00N 40°50' E 024°57'4 7.3
2017-Sep-10 16:30N 40°50' E 025°02'3 6.8
2017-Sep-10 16:00N 40°50' E 025°06'1 1.7
2017-Sep-10 15:30N 40°50' E 025°05'2 3.0
2017-Sep-10 15:00N 40°50' E 025°03'3 3.0
2017-Sep-10 14:00N 40°47' E 025°02'1 2.7
2017-Sep-10 13:30N 40°46' E 025°02'1 2.9
2017-Sep-10 13:00N 40°44' E 025°01'2 3.0
2017-Sep-10 12:30N 40°43' E 025°01'1 2.7
2017-Sep-10 12:00N 40°42' E 025°01'2 3.1
2017-Sep-10 11:30N 40°40' E 025°01'2 3.3
2017-Sep-10 10:59N 40°38' E 024°60'1 1.6
2017-Sep-10 10:30N 40°38' E 025°01'2 3.0
2017-Sep-10 10:00N 40°39' E 025°03'2 3.0
2017-Sep-10 09:28N 40°39' E 025°05'1 3.0
2017-Sep-10 09:00N 40°39' E 025°07'2 3.0
2017-Sep-10 08:30N 40°40' E 025°08'2 3.0
2017-Sep-10 07:59N 40°40' E 025°10'1 3.0
2017-Sep-10 07:30N 40°41' E 025°12'2 3.0
2017-Sep-10 07:00N 40°42' E 025°14'1 3.0
2017-Sep-10 06:30N 40°42' E 025°16'2 3.0
2017-Sep-10 06:00N 40°43' E 025°17'6 0.7
2017-Sep-09 20:38N 40°41' E 025°25'4 3.0
2017-Sep-09 19:10N 40°45' E 025°23'1 3.1
2017-Sep-09 18:57N 40°46' E 025°23'3 2.9
2017-Sep-09 17:56N 40°48' E 025°20'1 3.1
2017-Sep-09 17:30N 40°48' E 025°18'2 3.1
2017-Sep-09 16:54N 40°48' E 025°16'1 3.1
2017-Sep-09 16:30N 40°48' E 025°14'5 3.1
2017-Sep-09 14:55N 40°48' E 025°08'1 3.1
2017-Sep-09 14:28N 40°49' E 025°06'2 3.0
2017-Sep-09 13:56N 40°49' E 025°04'1 3.2
2017-Sep-09 13:30N 40°49' E 025°02'1 1.6
2017-Sep-09 13:00N 40°49' E 025°01'2 3.0
2017-Sep-09 12:29N 40°47' E 025°01'  

Dump ship's entire track history